Flight Track Log - Related Links

Times and Time Zones

All times are in EDT time to prevent confusion due to time zone crossing. See the N595PC flight status page for this flight to view local times or setup timezone preferences in your user account.

Time Position Orientation Groundspeed Altitude Reporting Facility
EDT Latitude Longitude Course Direction KTS MPH feet Rate Location/Type
Sat 10:35:00 PM 40.3811 -75.1480 284° West  Level Estimated
Sat 10:36:00 PM 40.3993 -75.2464 284° West  Level Estimated
Sat 10:37:00 PM 40.4174 -75.3448 284° West  Level Estimated
Sat 10:38:00 PM 40.4353 -75.4433 284° West  Level Estimated
Sat 10:39:00 PM 40.4533 -75.5419 283° West  Level Estimated
Sat 10:40:00 PM 40.4711 -75.6405 283° West  Level Estimated
Sat 10:40:07 PM 40.0842 -75.5322 285° West 245 282 14,000  Level New York Center
Sat 10:41:00 PM 40.4888 -75.7391 283° West  Level Estimated
Sat 10:41:09 PM 40.1606 -75.5511 349° North 233 268 16,700  Level New York Center
Sat 10:42:00 PM 40.5065 -75.8379 283° West  Level Estimated
Sat 10:42:06 PM 40.2264 -75.5719 346° North 268 308 18,300  Level New York Center
Sat 10:43:00 PM 40.5240 -75.9366 283° West  Level Estimated
Sat 10:43:07 PM 40.2753 -75.6489 310° West 261 300 19,800  Level New York Center
Sat 10:44:00 PM 40.5415 -76.0354 283° West  Level Estimated
Sat 10:44:08 PM 40.3067 -75.7464 293° West 272 313 21,400  Level New York Center
Sat 10:45:00 PM 40.5599 -76.1396 285° West  Level Estimated
Sat 10:45:07 PM 40.3294 -75.8486 286° West 277 319 23,100  Level New York Center
Sat 10:46:08 PM 40.3522 -75.9483 287° West 287 330 24,800 1,736 Climbing New York Center
Sat 10:47:08 PM 40.3708 -76.0453 284° West 287 330 26,600 1,831 Climbing New York Center
Sat 10:48:06 PM 40.3936 -76.1394 288° West 276 318 28,400 1,729 Climbing New York Center
Sat 10:49:06 PM 40.4125 -76.2283 286° West 265 305 30,000 787 Climbing New York Center
Sat 10:50:08 PM 40.4372 -76.3231 289° West 270 311 30,000  Level New York Center
Sat 10:51:06 PM 40.4592 -76.4311 285° West 289 333 30,000  Level New York Center
Sat 10:52:06 PM 40.4850 -76.5453 287° West 310 357 30,000  Level New York Center
Sat 10:53:07 PM 40.5128 -76.6594 288° West 325 374 30,000  Level New York Center
Sat 10:54:07 PM 40.5381 -76.7764 286° West 330 380 30,000  Level New York Center
Sat 10:55:08 PM 40.5650 -76.8989 286° West 335 386 30,000  Level New York Center
Sat 10:56:06 PM 40.5900 -77.0214 285° West 340 391 30,000 270 Level New York Center
Sat 10:58:06 PM 40.6439 -77.2589 287° West 345 397 30,800 659 Climbing New York Center
Sat 10:59:08 PM 40.6708 -77.3764 287° West 326 375 32,000 497 Climbing New York Center
Sat 11:00:31 PM 40.7033 -77.5214 287° West 305 351 32,000  Level Cleveland Center
Sat 11:01:32 PM 40.7253 -77.6331 285° West 313 360 32,000  Level Cleveland Center
Sat 11:02:32 PM 40.7500 -77.7442 286° West 317 365 32,000 -248 Level Cleveland Center
Sat 11:03:33 PM 40.7725 -77.8578 285° West 318 366 31,500 -843 Descending Cleveland Center
Sat 11:04:33 PM 40.7983 -77.9736 286° West 327 376 30,300 -1,550 Descending Cleveland Center
Sat 11:05:33 PM 40.8214 -78.0908 285° West 329 379 28,400 -1,537 Descending Cleveland Center
Sat 11:06:34 PM 40.8494 -78.2114 287° West 340 391 27,200 -1,289 Descending Cleveland Center
Sat 11:07:34 PM 40.8756 -78.3431 285° West 345 397 25,800 -1,388 Descending Cleveland Center
Sat 11:08:35 PM 40.8992 -78.4578 285° West 332 382 24,400 -893 Descending Cleveland Center
Sat 11:09:35 PM 40.9217 -78.5658 285° West 313 360 24,000 -793 Descending Cleveland Center
Sat 11:10:36 PM 40.9442 -78.6822 284° West 327 376 22,800 -1,091 Descending Cleveland Center
Sat 11:11:36 PM 40.9697 -78.7983 286° West 330 380 21,800 -992 Descending Cleveland Center
Sat 11:12:37 PM 40.9914 -78.9136 284° West 329 379 20,800 -893 Descending Cleveland Center
Sat 11:13:37 PM 41.0158 -79.0303 286° West 329 379 20,000 -397 Descending Cleveland Center
Sat 11:14:38 PM 41.0378 -79.1503 284° West 332 382 20,000  Level Cleveland Center
Sat 11:15:38 PM 41.0633 -79.2686 286° West 336 387 20,000  Level Cleveland Center
Sat 11:16:39 PM 41.0850 -79.3894 283° West 336 387 20,000  Level Cleveland Center
Sat 11:17:39 PM 41.1106 -79.5086 286° West 338 389 20,000  Level Cleveland Center
Sat 11:18:39 PM 41.1364 -79.6486 284° West 337 388 20,000  Level Cleveland Center
Sat 11:19:40 PM 41.1592 -79.7678 284° West 336 387 20,000  Level Cleveland Center
Sat 11:20:40 PM 41.1836 -79.8853 285° West 334 384 20,000  Level Cleveland Center
Sat 11:21:41 PM 41.2047 -80.0083 283° West 333 383 20,000  Level Cleveland Center
Sat 11:22:41 PM 41.2286 -80.1272 285° West 334 384 20,000  Level Cleveland Center
Sat 11:23:42 PM 41.2403 -80.2497 277° West 334 384 20,000  Level Cleveland Center
Sat 11:24:42 PM 41.2539 -80.3669 279° West 334 384 20,000  Level Cleveland Center
Sat 11:25:42 PM 41.2672 -80.4906 278° West 337 388 20,000 -645 Level Cleveland Center
Sat 11:26:43 PM 41.2814 -80.6086 279° West 324 373 18,700 -1,437 Descending Cleveland Center
Sat 11:26:53 PM 41.2831 -80.6364 275° West 327 376 18,300 -1,700 Descending Cleveland Center
Sat 11:27:43 PM 41.2922 -80.7272 278° West 319 367 17,000 -1,800 Descending Cleveland Center
Sat 11:28:43 PM 41.3064 -80.8425 279° West 313 360 15,000 -2,028 Descending Cleveland Center
Sat 11:28:54 PM 41.3100 -80.8683 281° West 313 360 14,600 -1,967 Descending Cleveland Center
Sat 11:29:44 PM 41.3172 -80.9517 277° West 298 343 13,000 -1,967 Descending Cleveland Center
Sat 11:29:55 PM 41.3200 -80.9728 280° West 287 330 12,600 -2,104 Descending Cleveland Center
Sat 11:31:01 PM 41.3475 -81.0911 287° West 283 326 10,300 -1,376 Descending Cleveland Center
Sat 11:31:44 PM 41.3653 -81.1519 291° West 279 321 10,100 -295 Descending Cleveland Center
Sat 11:32:02 PM 41.3819 -81.1797 309° West 273 314 10,000 -197 Descending Cleveland Center
Sat 11:32:45 PM 41.4144 -81.2314 310° West 278 320 9,900 -492 Descending Cleveland Center
Sat 11:33:03 PM 41.4297 -81.2569 309° West 274 315 9,500 -1,300 Descending Cleveland Center
Sat 11:33:45 PM 41.4600 -81.3081 308° West 268 308 8,600 -1,400 Descending Cleveland Center
Sat 11:34:03 PM 41.4733 -81.3333 305° West 263 303 8,100 -1,500 Descending Cleveland Center
Sat 11:34:45 PM 41.5036 -81.3811 310° West 256 295 7,100 -1,279 Descending Cleveland Center
Sat 11:35:04 PM 41.5175 -81.4044 308° West 248 285 6,800 -1,000 Descending Cleveland Center
Sat 11:35:45 PM 41.5467 -81.4511 310° West 249 287 6,100 -800 Descending Cleveland Center
Sat 11:36:04 PM 41.5594 -81.4753 305° West 229 264 6,000 -787 Descending Cleveland Center
Sat 11:36:46 PM 41.5675 -81.5144 285° West 200 230 5,300 -984 Descending Cleveland Center
Sat 11:37:05 PM 41.5664 -81.5406 267° West 174 200 5,000 -1,000 Descending Cleveland Center
Sat 11:37:46 PM 41.5525 -81.5839 247° West 195 224 4,300 -1,300 Descending Cleveland Center
Sat 11:38:05 PM 41.5453 -81.6125 251° West 207 238 3,700 -1,300 Descending Cleveland Center
Sat 11:38:46 PM 41.5311 -81.6564 247° West 204 235 3,000 -689 Descending Cleveland Center
Sat 11:39:06 PM 41.5222 -81.6817 245° Southwest 212 244 3,000  Level Cleveland Center
Sat 11:39:47 PM 41.4972 -81.7172 227° Southwest 205 236 3,000  Level Cleveland Center
Sat 11:40:01 PM 41.4878 -81.7347 234° Southwest 193 222 3,000 -600 Level Cleveland Center
Sat 11:40:47 PM 41.4689 -81.7644 230° Southwest 173 199 2,400 -800 Descending Cleveland Center
Sat 11:41:01 PM 41.4614 -81.7722 218° Southwest 128 147 2,200 -600 Descending Cleveland Center
Sat 11:41:47 PM 41.4436 -81.7950 224° Southwest 137 158 1,800 -590 Descending Cleveland Center
Sat 11:42:02 PM 41.4375 -81.8047 230° Southwest 108 124 1,600 -700 Descending Cleveland Center
Sat 11:42:47 PM 41.4236 -81.8278 231° Southwest 121 139 1,100 -396 Descending Cleveland Center
Sat 11:43:48 PM 41.4064 -81.8547 230° Southwest 118 136 900 -197 Descending Cleveland Center

Login

Don't have an account? Register now (free) for customized features, flight alerts, and more!